Time;durP1;ratioP1;P1;durP2;ratioP2;P2;SDS_P1;SDS_P2;PMS_P1;PMS_P2;Temp;Humidity;BMP_temperature;BMP_pressure;BME280_temperature;BME280_humidity;BME280_pressure;Samples;Min_cycle;Max_cycle;Signal;HPM_P1;HPM_P2
2023/06/02 00:00:09;;;;;;;;;;;21.00;53.50;;;;;;10367491;28;885;-74
2023/06/02 00:05:05;;;;;;;;;;;21.00;53.50;;;;;;10366703;28;1882;-74
2023/06/02 00:10:00;;;;;;;;;;;21.00;53.50;;;;;;10365939;28;1009;-75
2023/06/02 00:14:56;;;;;;;;;;;21.00;53.60;;;;;;10366390;28;850;-74
2023/06/02 00:19:51;;;;;;;;;;;21.00;53.60;;;;;;10366528;28;846;-75
2023/06/02 00:24:47;;;;;;;;;;;21.00;53.60;;;;;;10365629;28;1905;-74
2023/06/02 00:29:42;;;;;;;;;;;21.00;53.50;;;;;;10366240;28;872;-74
2023/06/02 00:34:37;;;;;;;;;;;21.00;53.60;;;;;;10365908;28;1393;-75
2023/06/02 00:39:33;;;;;;;;;;;21.00;53.60;;;;;;10365526;28;829;-74
2023/06/02 00:44:28;;;;;;;;;;;21.00;53.60;;;;;;10366142;28;1917;-74
2023/06/02 00:49:24;;;;;;;;;;;21.00;53.50;;;;;;10368532;28;767;-75
2023/06/02 00:54:19;;;;;;;;;;;20.90;53.50;;;;;;10373188;28;939;-74
2023/06/02 00:59:15;;;;;;;;;;;20.90;53.50;;;;;;10372660;28;777;-74
2023/06/02 01:04:12;;;;;;;;;;;20.90;53.50;;;;;;10372812;28;1961;-75
2023/06/02 01:09:07;;;;;;;;;;;20.90;53.50;;;;;;10372468;28;1564;-75
2023/06/02 01:14:03;;;;;;;;;;;21.00;53.60;;;;;;10372111;28;865;-75
2023/06/02 01:19:01;;;;;;;;;;;20.90;53.50;;;;;;10372319;28;860;-74
2023/06/02 01:23:59;;;;;;;;;;;20.90;53.50;;;;;;10371505;28;1906;-74
2023/06/02 01:28:55;;;;;;;;;;;20.90;53.50;;;;;;10371603;28;856;-74
2023/06/02 01:33:50;;;;;;;;;;;20.90;53.50;;;;;;10370947;28;1239;-75
2023/06/02 01:38:46;;;;;;;;;;;20.90;53.60;;;;;;10371062;28;821;-75
2023/06/02 01:43:41;;;;;;;;;;;21.00;53.60;;;;;;10369976;28;1913;-74
2023/06/02 01:48:36;;;;;;;;;;;20.90;53.50;;;;;;10370024;28;825;-75
2023/06/02 01:53:32;;;;;;;;;;;20.90;53.50;;;;;;10370506;28;980;-74
2023/06/02 01:58:27;;;;;;;;;;;20.90;53.60;;;;;;10370175;28;1154;-75
2023/06/02 02:03:23;;;;;;;;;;;20.90;53.50;;;;;;10369423;28;1910;-74
2023/06/02 02:08:18;;;;;;;;;;;20.90;53.50;;;;;;10369740;28;852;-74
2023/06/02 02:13:15;;;;;;;;;;;20.90;53.60;;;;;;10368935;28;1138;-74
2023/06/02 02:18:10;;;;;;;;;;;20.90;53.60;;;;;;10370020;28;871;-74
2023/06/02 02:23:05;;;;;;;;;;;20.90;53.50;;;;;;10370043;28;1987;-75
2023/06/02 02:28:01;;;;;;;;;;;20.90;53.50;;;;;;10370436;28;893;-74
2023/06/02 02:32:56;;;;;;;;;;;20.90;53.50;;;;;;10368833;28;781;-74
2023/06/02 02:37:52;;;;;;;;;;;20.90;53.50;;;;;;10369619;28;1351;-74
2023/06/02 02:42:47;;;;;;;;;;;20.90;54.10;;;;;;10369013;28;1905;-75
2023/06/02 02:47:42;;;;;;;;;;;20.80;53.50;;;;;;10368256;28;903;-74
2023/06/02 02:52:38;;;;;;;;;;;20.80;53.50;;;;;;10368665;28;872;-74
2023/06/02 02:57:33;;;;;;;;;;;20.90;53.60;;;;;;10368726;28;855;-74
2023/06/02 03:02:28;;;;;;;;;;;20.80;53.50;;;;;;10367635;28;1897;-75
2023/06/02 03:07:24;;;;;;;;;;;20.80;53.50;;;;;;10368387;28;939;-74
2023/06/02 03:12:20;;;;;;;;;;;20.80;53.50;;;;;;10367497;28;862;-75
2023/06/02 03:17:17;;;;;;;;;;;20.80;53.50;;;;;;10367385;28;924;-74
2023/06/02 03:22:12;;;;;;;;;;;20.80;53.50;;;;;;10367108;28;1102;-75
2023/06/02 03:27:13;;;;;;;;;;;20.80;53.60;;;;;;10367550;28;1910;-74
2023/06/02 03:32:08;;;;;;;;;;;20.80;54.10;;;;;;10367507;28;881;-75
2023/06/02 03:37:03;;;;;;;;;;;20.80;53.60;;;;;;10366212;28;1314;-75
2023/06/02 03:41:59;;;;;;;;;;;20.80;53.60;;;;;;10367293;28;810;-75
2023/06/02 03:46:54;;;;;;;;;;;20.80;53.70;;;;;;10367028;28;1988;-75
2023/06/02 03:51:49;;;;;;;;;;;20.70;53.70;;;;;;10366368;28;875;-74
2023/06/02 03:56:45;;;;;;;;;;;20.70;53.70;;;;;;10366308;28;800;-74
2023/06/02 04:01:41;;;;;;;;;;;20.70;53.70;;;;;;10366811;28;872;-74
2023/06/02 04:06:37;;;;;;;;;;;20.70;53.60;;;;;;10365958;28;1961;-74
2023/06/02 04:11:33;;;;;;;;;;;20.70;53.60;;;;;;10365947;28;878;-74
2023/06/02 04:16:28;;;;;;;;;;;20.80;53.70;;;;;;10365934;28;891;-74
2023/06/02 04:21:23;;;;;;;;;;;20.80;53.70;;;;;;10365952;28;881;-74
2023/06/02 04:26:19;;;;;;;;;;;20.70;53.60;;;;;;10372887;28;1961;-75
2023/06/02 04:31:26;;;;;;;;;;;20.70;53.60;;;;;;10374275;28;871;-74
2023/06/02 04:36:21;;;;;;;;;;;20.70;53.70;;;;;;10374003;28;1520;-74
2023/06/02 04:41:17;;;;;;;;;;;20.70;53.70;;;;;;10373985;28;814;-74
2023/06/02 04:46:13;;;;;;;;;;;20.70;53.70;;;;;;10372939;28;1968;-74
2023/06/02 04:51:08;;;;;;;;;;;20.60;53.70;;;;;;10374065;28;911;-74
2023/06/02 04:56:04;;;;;;;;;;;20.70;53.80;;;;;;10372593;28;963;-75
2023/06/02 05:00:59;;;;;;;;;;;20.70;53.70;;;;;;10372406;28;1051;-74
2023/06/02 05:05:54;;;;;;;;;;;20.70;53.70;;;;;;10372082;28;1979;-74
2023/06/02 05:10:50;;;;;;;;;;;20.70;53.70;;;;;;10372748;28;881;-74
2023/06/02 05:15:45;;;;;;;;;;;20.70;53.60;;;;;;10371918;28;880;-74
2023/06/02 05:20:41;;;;;;;;;;;20.70;53.70;;;;;;10372335;28;928;-75
2023/06/02 05:25:36;;;;;;;;;;;20.70;53.70;;;;;;10372103;28;1947;-75
2023/06/02 05:30:32;;;;;;;;;;;20.60;53.60;;;;;;10371368;28;1173;-75
2023/06/02 05:35:27;;;;;;;;;;;20.60;53.70;;;;;;10370244;28;1584;-74
2023/06/02 05:40:22;;;;;;;;;;;20.60;53.70;;;;;;10371906;28;932;-77
2023/06/02 05:45:18;;;;;;;;;;;20.60;53.70;;;;;;10371439;28;1906;-74
2023/06/02 05:50:13;;;;;;;;;;;20.60;53.70;;;;;;10370646;28;769;-75
2023/06/02 05:55:08;;;;;;;;;;;20.60;53.60;;;;;;10370956;28;932;-75
2023/06/02 06:00:04;;;;;;;;;;;20.60;53.70;;;;;;10370196;28;959;-75
2023/06/02 06:04:59;;;;;;;;;;;20.60;53.70;;;;;;10369876;28;1898;-74
2023/06/02 06:09:55;;;;;;;;;;;20.60;53.70;;;;;;10369203;28;857;-74
2023/06/02 06:14:50;;;;;;;;;;;20.60;53.70;;;;;;10368961;28;888;-75
2023/06/02 06:19:46;;;;;;;;;;;20.60;53.80;;;;;;10368803;28;849;-75
2023/06/02 06:24:41;;;;;;;;;;;20.50;53.70;;;;;;10367164;28;1963;-75
2023/06/02 06:29:36;;;;;;;;;;;20.60;53.80;;;;;;10369239;28;814;-74
2023/06/02 06:34:32;;;;;;;;;;;20.60;53.80;;;;;;10367443;28;1319;-74
2023/06/02 06:39:27;;;;;;;;;;;20.60;53.80;;;;;;10368434;28;900;-74
2023/06/02 06:44:22;;;;;;;;;;;20.50;53.70;;;;;;10368316;28;1914;-75
2023/06/02 06:49:18;;;;;;;;;;;20.60;53.80;;;;;;10367945;28;886;-75
2023/06/02 06:54:15;;;;;;;;;;;20.60;53.80;;;;;;10365721;28;991;-74
2023/06/02 06:59:10;;;;;;;;;;;20.50;53.70;;;;;;10367597;28;931;-75
2023/06/02 07:04:06;;;;;;;;;;;20.60;53.80;;;;;;10367862;28;1898;-74
2023/06/02 07:09:01;;;;;;;;;;;20.50;53.80;;;;;;10368182;28;821;-68
2023/06/02 07:13:56;;;;;;;;;;;20.50;53.70;;;;;;10367491;28;797;-70
2023/06/02 07:18:52;;;;;;;;;;;20.50;53.80;;;;;;10367318;28;886;-70
2023/06/02 07:23:47;;;;;;;;;;;20.40;53.80;;;;;;10367098;28;1951;-70
2023/06/02 07:28:43;;;;;;;;;;;20.50;53.80;;;;;;10367583;28;833;-70
2023/06/02 07:33:38;;;;;;;;;;;20.40;53.60;;;;;;10367198;28;1473;-70
2023/06/02 07:38:34;;;;;;;;;;;20.40;53.60;;;;;;10366769;28;778;-70
2023/06/02 07:43:29;;;;;;;;;;;20.40;53.60;;;;;;10366459;28;1921;-70
2023/06/02 07:48:24;;;;;;;;;;;20.40;53.60;;;;;;10366762;28;753;-70
2023/06/02 07:53:20;;;;;;;;;;;20.40;53.70;;;;;;10366449;28;817;-70
2023/06/02 07:58:15;;;;;;;;;;;20.40;53.60;;;;;;10368000;28;929;-70
2023/06/02 08:03:11;;;;;;;;;;;20.50;53.60;;;;;;10374996;28;1906;-71
2023/06/02 08:08:06;;;;;;;;;;;20.50;53.50;;;;;;10374794;28;806;-70
2023/06/02 08:13:02;;;;;;;;;;;20.60;53.40;;;;;;10374331;28;937;-70
2023/06/02 08:17:57;;;;;;;;;;;20.60;53.40;;;;;;10375129;28;766;-73
2023/06/02 08:22:52;;;;;;;;;;;20.50;53.50;;;;;;10374174;28;1901;-70
2023/06/02 08:27:48;;;;;;;;;;;20.50;53.60;;;;;;10373560;28;940;-70
2023/06/02 08:32:44;;;;;;;;;;;20.50;53.60;;;;;;10373847;28;967;-70
2023/06/02 08:37:40;;;;;;;;;;;20.50;53.60;;;;;;10374300;28;1132;-71
2023/06/02 08:42:35;;;;;;;;;;;20.50;53.50;;;;;;10373502;28;1910;-71
2023/06/02 08:47:32;;;;;;;;;;;20.50;53.60;;;;;;10373075;28;876;-72
2023/06/02 08:52:27;;;;;;;;;;;20.50;53.70;;;;;;10373779;28;811;-73
2023/06/02 08:57:23;;;;;;;;;;;20.50;53.60;;;;;;10373052;28;1669;-73
2023/06/02 09:02:18;;;;;;;;;;;20.50;54.00;;;;;;10373105;28;803;-69
2023/06/02 09:07:15;;;;;;;;;;;20.50;54.00;;;;;;10372429;28;1972;-69
2023/06/02 09:12:10;;;;;;;;;;;20.40;53.90;;;;;;10372681;28;786;-69
2023/06/02 09:17:05;;;;;;;;;;;20.50;53.80;;;;;;10371988;28;766;-69
2023/06/02 09:22:01;;;;;;;;;;;20.50;53.70;;;;;;10372406;28;889;-69
2023/06/02 09:26:56;;;;;;;;;;;20.40;53.70;;;;;;10371520;28;1961;-69
2023/06/02 09:31:52;;;;;;;;;;;20.40;53.60;;;;;;10372034;28;802;-69
2023/06/02 09:36:47;;;;;;;;;;;20.40;53.50;;;;;;10371893;28;1404;-70
2023/06/02 09:41:43;;;;;;;;;;;20.40;53.50;;;;;;10371482;28;874;-70
2023/06/02 09:46:38;;;;;;;;;;;20.40;53.40;;;;;;10370625;28;1979;-70
2023/06/02 09:51:35;;;;;;;;;;;20.40;53.50;;;;;;10371221;28;841;-70
2023/06/02 09:56:34;;;;;;;;;;;20.40;53.60;;;;;;10370372;28;946;-70
2023/06/02 10:01:29;;;;;;;;;;;20.40;53.70;;;;;;10370720;28;834;-70
2023/06/02 10:06:24;;;;;;;;;;;20.40;53.60;;;;;;10369983;28;1910;-70
2023/06/02 10:11:21;;;;;;;;;;;20.40;53.50;;;;;;10370557;28;876;-70
2023/06/02 10:16:16;;;;;;;;;;;20.40;53.40;;;;;;10370173;28;892;-70
2023/06/02 10:21:12;;;;;;;;;;;20.40;53.30;;;;;;10368687;28;833;-70
2023/06/02 10:26:07;;;;;;;;;;;20.40;53.40;;;;;;10370045;28;1902;-70
2023/06/02 10:31:02;;;;;;;;;;;20.40;53.40;;;;;;10368420;28;1245;-70
2023/06/02 10:35:58;;;;;;;;;;;20.40;53.40;;;;;;10368945;28;1306;-70
2023/06/02 10:40:54;;;;;;;;;;;20.50;53.40;;;;;;10368574;28;867;-71
2023/06/02 10:45:50;;;;;;;;;;;20.40;53.50;;;;;;10368370;28;1994;-71
2023/06/02 10:50:45;;;;;;;;;;;20.50;53.40;;;;;;10368264;28;1139;-70
2023/06/02 10:55:41;;;;;;;;;;;20.40;53.40;;;;;;10367576;28;908;-70
2023/06/02 11:00:36;;;;;;;;;;;20.40;53.40;;;;;;10367921;28;898;-70
2023/06/02 11:05:32;;;;;;;;;;;20.40;53.40;;;;;;10368643;28;1913;-70
2023/06/02 11:10:27;;;;;;;;;;;20.50;53.40;;;;;;10367341;28;938;-69
2023/06/02 11:15:23;;;;;;;;;;;20.40;53.40;;;;;;10368020;28;778;-68
2023/06/02 11:20:18;;;;;;;;;;;20.40;53.40;;;;;;10367977;28;884;-69
2023/06/02 11:25:13;;;;;;;;;;;20.40;53.40;;;;;;10367619;28;1977;-70
2023/06/02 11:30:09;;;;;;;;;;;20.50;53.40;;;;;;10367619;28;817;-69
2023/06/02 11:35:05;;;;;;;;;;;20.50;53.40;;;;;;10366996;28;1341;-71
2023/06/02 11:40:01;;;;;;;;;;;20.50;53.40;;;;;;10366643;28;821;-71
2023/06/02 11:44:56;;;;;;;;;;;20.50;53.40;;;;;;10367758;28;1953;-69
2023/06/02 11:49:51;;;;;;;;;;;20.60;53.50;;;;;;10366540;28;802;-71
2023/06/02 11:54:47;;;;;;;;;;;20.50;53.40;;;;;;10366389;28;809;-68
2023/06/02 11:59:42;;;;;;;;;;;20.50;53.50;;;;;;10367005;28;798;-75
2023/06/02 12:04:38;;;;;;;;;;;20.50;53.50;;;;;;10366213;28;1914;-75
2023/06/02 12:09:33;;;;;;;;;;;20.50;53.70;;;;;;10366089;28;854;-75
2023/06/02 12:14:28;;;;;;;;;;;20.50;53.70;;;;;;10365473;28;976;-75
2023/06/02 12:19:24;;;;;;;;;;;20.50;53.70;;;;;;10365297;28;1027;-70
2023/06/02 12:24:20;;;;;;;;;;;20.50;53.70;;;;;;10366012;28;1913;-70
2023/06/02 12:29:15;;;;;;;;;;;20.50;53.60;;;;;;10365753;28;813;-71
2023/06/02 12:34:10;;;;;;;;;;;20.50;53.70;;;;;;10366079;28;1484;-71
2023/06/02 12:39:06;;;;;;;;;;;20.50;53.70;;;;;;10365635;28;998;-71
2023/06/02 12:44:01;;;;;;;;;;;20.50;53.80;;;;;;10366107;28;1913;-71
2023/06/02 12:48:58;;;;;;;;;;;20.50;53.90;;;;;;10373167;28;885;-71
2023/06/02 12:53:53;;;;;;;;;;;20.50;53.90;;;;;;10373085;28;850;-71
2023/06/02 12:58:49;;;;;;;;;;;20.50;53.90;;;;;;10372668;28;848;-71
2023/06/02 13:03:49;;;;;;;;;;;20.50;53.90;;;;;;10372241;28;1967;-71
2023/06/02 13:08:45;;;;;;;;;;;20.50;53.90;;;;;;10372094;28;1103;-71
2023/06/02 13:13:40;;;;;;;;;;;20.50;53.90;;;;;;10372440;28;803;-71
2023/06/02 13:18:36;;;;;;;;;;;20.50;53.90;;;;;;10371642;28;845;-71
2023/06/02 13:23:31;;;;;;;;;;;20.50;53.80;;;;;;10372338;28;1977;-71
2023/06/02 13:28:26;;;;;;;;;;;20.50;53.80;;;;;;10371572;28;855;-71
2023/06/02 13:33:22;;;;;;;;;;;20.60;53.90;;;;;;10372590;28;853;-71
2023/06/02 13:38:17;;;;;;;;;;;20.60;53.80;;;;;;10371841;28;1187;-71
2023/06/02 13:43:13;;;;;;;;;;;20.60;53.80;;;;;;10370524;28;1921;-71
2023/06/02 13:48:08;;;;;;;;;;;20.60;53.90;;;;;;10370476;28;849;-71
2023/06/02 13:53:04;;;;;;;;;;;20.60;53.80;;;;;;10370892;28;917;-71
2023/06/02 13:57:59;;;;;;;;;;;20.70;53.80;;;;;;10369566;28;753;-71
2023/06/02 14:02:54;;;;;;;;;;;20.70;53.80;;;;;;10370697;28;1901;-70
2023/06/02 14:07:50;;;;;;;;;;;20.70;53.80;;;;;;10369964;28;949;-71
2023/06/02 14:12:45;;;;;;;;;;;20.70;53.90;;;;;;10369806;28;774;-70
2023/06/02 14:17:40;;;;;;;;;;;20.70;53.80;;;;;;10369693;28;823;-70
2023/06/02 14:22:36;;;;;;;;;;;20.70;53.80;;;;;;10369438;28;948;-71
2023/06/02 14:27:33;;;;;;;;;;;20.80;53.90;;;;;;10369301;28;790;-69
2023/06/02 14:32:28;;;;;;;;;;;20.70;53.90;;;;;;10369116;28;911;-71
2023/06/02 14:37:24;;;;;;;;;;;20.80;54.20;;;;;;10369043;28;1413;-69
2023/06/02 14:42:19;;;;;;;;;;;20.80;54.60;;;;;;10369262;28;835;-70
2023/06/02 14:47:15;;;;;;;;;;;20.80;54.10;;;;;;10368405;28;1987;-70
2023/06/02 14:52:10;;;;;;;;;;;20.90;54.00;;;;;;10369694;28;821;-70
2023/06/02 14:57:06;;;;;;;;;;;20.90;53.80;;;;;;10368168;28;774;-70
2023/06/02 15:02:02;;;;;;;;;;;20.90;54.00;;;;;;10368528;28;863;-70
2023/06/02 15:06:57;;;;;;;;;;;20.90;54.10;;;;;;10367967;28;1926;-71
2023/06/02 15:11:53;;;;;;;;;;;20.90;54.10;;;;;;10367741;28;900;-69
2023/06/02 15:16:48;;;;;;;;;;;20.90;54.20;;;;;;10368046;28;880;-70
2023/06/02 15:21:44;;;;;;;;;;;20.90;53.90;;;;;;10367937;28;859;-69
2023/06/02 15:26:39;;;;;;;;;;;20.90;54.10;;;;;;10367083;28;1910;-70
2023/06/02 15:31:35;;;;;;;;;;;20.90;54.10;;;;;;10367032;28;850;-69
2023/06/02 15:36:30;;;;;;;;;;;20.90;54.20;;;;;;10365311;28;1136;-70
2023/06/02 15:41:26;;;;;;;;;;;21.00;53.80;;;;;;10366008;28;782;-70
2023/06/02 15:46:21;;;;;;;;;;;21.10;53.80;;;;;;10366744;28;1981;-70
2023/06/02 15:51:17;;;;;;;;;;;21.10;53.70;;;;;;10366696;28;841;-70
2023/06/02 15:56:12;;;;;;;;;;;21.00;53.80;;;;;;10366438;28;761;-71
2023/06/02 16:01:07;;;;;;;;;;;21.10;53.80;;;;;;10366327;28;1196;-71
2023/06/02 16:06:03;;;;;;;;;;;21.10;53.80;;;;;;10366369;28;1963;-74
2023/06/02 16:10:58;;;;;;;;;;;21.10;53.70;;;;;;10366732;28;826;-69
2023/06/02 16:15:54;;;;;;;;;;;21.20;53.60;;;;;;10366084;28;919;-71
2023/06/02 16:20:49;;;;;;;;;;;21.10;53.60;;;;;;10370523;28;872;-71
2023/06/02 16:25:44;;;;;;;;;;;21.00;53.80;;;;;;10374658;28;1906;-71
2023/06/02 16:30:40;;;;;;;;;;;21.00;53.90;;;;;;10373900;28;872;-71
2023/06/02 16:35:35;;;;;;;;;;;21.20;53.60;;;;;;10372946;28;1175;-71
2023/06/02 16:40:31;;;;;;;;;;;21.30;54.00;;;;;;10370881;28;928;-71
2023/06/02 16:45:26;;;;;;;;;;;21.30;53.40;;;;;;10370322;28;1917;-71
2023/06/02 16:50:21;;;;;;;;;;;21.30;53.30;;;;;;10370001;28;822;-71
2023/06/02 16:55:17;;;;;;;;;;;21.20;53.50;;;;;;10371104;28;826;-71
2023/06/02 17:00:12;;;;;;;;;;;21.10;53.60;;;;;;10370841;28;810;-71
2023/06/02 17:05:07;;;;;;;;;;;21.00;53.70;;;;;;10370393;28;1898;-71
2023/06/02 17:10:04;;;;;;;;;;;21.00;53.80;;;;;;10369959;28;926;-71
2023/06/02 17:14:59;;;;;;;;;;;20.90;53.80;;;;;;10370315;28;951;-71
2023/06/02 17:19:54;;;;;;;;;;;20.90;53.90;;;;;;10369598;28;778;-71
2023/06/02 17:24:50;;;;;;;;;;;20.90;53.90;;;;;;10370052;28;1901;-71
2023/06/02 17:29:45;;;;;;;;;;;20.90;54.50;;;;;;10369094;28;797;-71
2023/06/02 17:34:42;;;;;;;;;;;20.90;53.90;;;;;;10327005;28;1219615;-71
2023/06/02 17:39:39;;;;;;;;;;;20.90;53.90;;;;;;10371854;28;936;-71
2023/06/02 17:44:34;;;;;;;;;;;20.90;54.00;;;;;;10371553;28;1992;-71
2023/06/02 17:49:32;;;;;;;;;;;20.90;53.90;;;;;;10370273;28;870;-71
2023/06/02 17:54:27;;;;;;;;;;;20.90;54.00;;;;;;10371249;28;870;-70
2023/06/02 17:59:22;;;;;;;;;;;20.90;53.90;;;;;;10369888;28;830;-71
2023/06/02 18:04:18;;;;;;;;;;;20.90;53.90;;;;;;10369526;28;1972;-71
2023/06/02 18:09:14;;;;;;;;;;;20.90;53.90;;;;;;10370639;28;856;-71
2023/06/02 18:14:09;;;;;;;;;;;20.90;53.80;;;;;;10369760;28;898;-71
2023/06/02 18:19:05;;;;;;;;;;;21.00;53.70;;;;;;10369729;28;889;-71
2023/06/02 18:24:00;;;;;;;;;;;21.10;53.70;;;;;;10369439;28;1902;-71
2023/06/02 18:28:56;;;;;;;;;;;21.10;53.60;;;;;;10370500;28;935;-71
2023/06/02 18:33:51;;;;;;;;;;;21.10;53.60;;;;;;10369134;28;1072;-71
2023/06/02 18:38:46;;;;;;;;;;;21.10;53.70;;;;;;10369541;28;742;-71
2023/06/02 18:43:42;;;;;;;;;;;21.00;53.60;;;;;;10368710;28;1918;-71
2023/06/02 18:48:37;;;;;;;;;;;21.00;53.70;;;;;;10369103;28;793;-71
2023/06/02 18:53:32;;;;;;;;;;;21.00;53.70;;;;;;10368345;28;869;-71
2023/06/02 18:58:28;;;;;;;;;;;21.00;53.70;;;;;;10368158;28;805;-71
2023/06/02 19:03:23;;;;;;;;;;;21.00;53.70;;;;;;10367912;28;1971;-71
2023/06/02 19:08:19;;;;;;;;;;;21.00;53.70;;;;;;10367862;28;955;-71
2023/06/02 19:13:14;;;;;;;;;;;20.90;53.70;;;;;;10367827;28;890;-70
2023/06/02 19:18:11;;;;;;;;;;;20.90;53.70;;;;;;10368026;28;844;-69
2023/06/02 19:23:06;;;;;;;;;;;20.90;53.70;;;;;;10367174;28;1905;-68
2023/06/02 19:28:01;;;;;;;;;;;20.90;53.80;;;;;;10367307;28;916;-68
2023/06/02 19:32:57;;;;;;;;;;;20.80;53.70;;;;;;10367643;28;846;-68
2023/06/02 19:37:53;;;;;;;;;;;20.80;53.50;;;;;;10366165;28;1458;-73
2023/06/02 19:42:48;;;;;;;;;;;20.70;53.40;;;;;;10367537;28;1910;-73
2023/06/02 19:47:44;;;;;;;;;;;20.80;53.30;;;;;;10366631;28;914;-73
2023/06/02 19:52:39;;;;;;;;;;;20.80;53.30;;;;;;10365738;28;998;-73
2023/06/02 19:57:34;;;;;;;;;;;20.80;53.30;;;;;;10365256;28;928;-72
2023/06/02 20:02:30;;;;;;;;;;;20.90;53.30;;;;;;10366811;28;961;-75
2023/06/02 20:07:26;;;;;;;;;;;20.80;53.10;;;;;;10366154;28;1901;-76
2023/06/02 20:12:21;;;;;;;;;;;20.80;53.20;;;;;;10366116;28;890;-75
2023/06/02 20:17:16;;;;;;;;;;;20.80;53.30;;;;;;10366699;28;794;-75
2023/06/02 20:22:12;;;;;;;;;;;20.80;53.40;;;;;;10365990;28;770;-75
2023/06/02 20:27:07;;;;;;;;;;;20.80;53.50;;;;;;10365212;28;1894;-75
2023/06/02 20:32:02;;;;;;;;;;;20.70;53.40;;;;;;10365792;28;778;-76
2023/06/02 20:36:58;;;;;;;;;;;20.80;53.50;;;;;;10365881;28;1593;-75
2023/06/02 20:41:53;;;;;;;;;;;20.70;53.70;;;;;;10365614;28;771;-76
2023/06/02 20:46:49;;;;;;;;;;;20.70;53.40;;;;;;10366041;28;1969;-76
2023/06/02 20:51:44;;;;;;;;;;;20.70;53.50;;;;;;10364827;28;857;-76
2023/06/02 20:56:40;;;;;;;;;;;20.70;53.40;;;;;;10365878;28;908;-76
2023/06/02 21:01:35;;;;;;;;;;;20.70;53.40;;;;;;10364545;28;1104;-75
2023/06/02 21:06:30;;;;;;;;;;;20.70;53.40;;;;;;10368488;28;1901;-76
2023/06/02 21:11:26;;;;;;;;;;;20.70;53.40;;;;;;10372935;28;1054;-76
2023/06/02 21:16:23;;;;;;;;;;;20.70;53.50;;;;;;10372291;28;855;-76
2023/06/02 21:21:18;;;;;;;;;;;20.70;53.50;;;;;;10371917;28;853;-76
2023/06/02 21:26:14;;;;;;;;;;;20.70;53.50;;;;;;10372310;28;1961;-76
2023/06/02 21:31:09;;;;;;;;;;;20.70;53.50;;;;;;10371781;28;846;-68
2023/06/02 21:36:05;;;;;;;;;;;20.70;53.30;;;;;;10370892;28;1089;-72
2023/06/02 21:41:01;;;;;;;;;;;20.70;53.20;;;;;;10371803;28;839;-72
2023/06/02 21:45:56;;;;;;;;;;;20.70;53.30;;;;;;10370976;28;1968;-72
2023/06/02 21:50:52;;;;;;;;;;;20.70;53.30;;;;;;10370806;28;827;-72
2023/06/02 21:55:47;;;;;;;;;;;20.70;53.30;;;;;;10370698;28;963;-72
2023/06/02 22:00:43;;;;;;;;;;;20.60;53.20;;;;;;10370509;28;855;-72
2023/06/02 22:05:38;;;;;;;;;;;20.70;53.30;;;;;;10371302;28;1905;-72
2023/06/02 22:10:34;;;;;;;;;;;20.60;53.20;;;;;;10370049;28;865;-73
2023/06/02 22:15:29;;;;;;;;;;;20.60;53.30;;;;;;10370337;28;825;-72
2023/06/02 22:20:25;;;;;;;;;;;20.60;53.30;;;;;;10368467;28;947;-72
2023/06/02 22:25:20;;;;;;;;;;;20.60;53.20;;;;;;10370113;28;1910;-72
2023/06/02 22:30:16;;;;;;;;;;;20.60;53.20;;;;;;10369259;28;861;-72
2023/06/02 22:35:12;;;;;;;;;;;20.60;53.20;;;;;;10368620;28;1211;-72
2023/06/02 22:40:07;;;;;;;;;;;20.60;53.30;;;;;;10368877;28;895;-73
2023/06/02 22:45:03;;;;;;;;;;;20.60;53.30;;;;;;10368668;28;1969;-72
2023/06/02 22:49:58;;;;;;;;;;;20.60;53.20;;;;;;10369178;28;756;-72
2023/06/02 22:54:54;;;;;;;;;;;20.60;53.20;;;;;;10368962;28;794;-72
2023/06/02 22:59:49;;;;;;;;;;;20.60;53.30;;;;;;10368063;28;1005;-72
2023/06/02 23:04:44;;;;;;;;;;;20.60;53.30;;;;;;10368245;28;1906;-72
2023/06/02 23:09:40;;;;;;;;;;;20.60;53.30;;;;;;10367223;28;904;-72
2023/06/02 23:14:35;;;;;;;;;;;20.60;53.20;;;;;;10367617;28;857;-72
2023/06/02 23:19:30;;;;;;;;;;;20.60;53.20;;;;;;10368070;28;881;-72
2023/06/02 23:24:26;;;;;;;;;;;20.60;53.20;;;;;;10367899;28;1905;-72
2023/06/02 23:29:21;;;;;;;;;;;20.50;53.20;;;;;;10366956;28;837;-72
2023/06/02 23:34:16;;;;;;;;;;;20.50;53.20;;;;;;10366856;28;1231;-72
2023/06/02 23:39:12;;;;;;;;;;;20.50;53.20;;;;;;10366894;28;821;-72
2023/06/02 23:44:07;;;;;;;;;;;20.60;53.20;;;;;;10366282;28;1967;-72
2023/06/02 23:49:03;;;;;;;;;;;20.60;53.20;;;;;;10366696;28;781;-72
2023/06/02 23:53:58;;;;;;;;;;;20.60;53.10;;;;;;10366483;28;953;-72
2023/06/02 23:58:54;;;;;;;;;;;20.50;53.10;;;;;;10366468;28;759;-72
